createdAt,value
2019-05-22T00:00:58.482Z,6.53
2019-05-22T00:03:36.424Z,6.55
2019-05-22T00:06:06.616Z,6.53
2019-05-22T00:08:37.540Z,7.12
2019-05-22T00:11:08.892Z,7.58
2019-05-22T00:13:40.427Z,7.60
2019-05-22T00:16:12.359Z,7.95
2019-05-22T00:18:42.938Z,7.05
2019-05-22T00:21:13.521Z,7.17
2019-05-22T00:23:45.042Z,7.70
2019-05-22T00:26:15.342Z,7.47
2019-05-22T00:28:45.755Z,8.33
2019-05-22T00:31:16.453Z,8.20
2019-05-22T00:33:46.252Z,8.58
2019-05-22T00:36:17.668Z,8.18
2019-05-22T00:38:48.441Z,8.40
2019-05-22T00:41:20.694Z,8.18
2019-05-22T00:43:53.914Z,7.92
2019-05-22T00:46:25.374Z,8.73
2019-05-22T00:48:55.049Z,8.23
2019-05-22T00:51:29.617Z,8.63
2019-05-22T00:54:01.484Z,7.85
2019-05-22T00:56:44.875Z,8.78
2019-05-22T00:59:29.291Z,7.97
2019-05-22T01:02:04.662Z,8.40
2019-05-22T01:04:37.146Z,8.00
2019-05-22T01:07:18.575Z,9.28
2019-05-22T01:09:52.465Z,8.78
2019-05-22T01:12:30.015Z,9.00
2019-05-22T01:15:07.323Z,8.88
2019-05-22T01:17:38.350Z,8.85
2019-05-22T01:20:11.458Z,9.28
2019-05-22T01:22:43.067Z,8.70
2019-05-22T01:25:17.066Z,9.98
2019-05-22T01:27:48.657Z,10.30
2019-05-22T01:30:24.055Z,9.28
2019-05-22T01:32:56.579Z,10.05
2019-05-22T01:35:31.334Z,10.30
2019-05-22T01:38:02.180Z,9.48
2019-05-22T01:40:50.132Z,10.30
2019-05-22T01:43:26.571Z,9.75
2019-05-22T01:45:59.729Z,11.30
2019-05-22T01:48:38.454Z,10.93
2019-05-22T01:51:10.761Z,11.35
2019-05-22T01:53:44.417Z,12.28
2019-05-22T01:56:17.285Z,12.60
2019-05-22T01:58:47.462Z,12.70
2019-05-22T02:01:20.433Z,13.40
2019-05-22T02:03:51.888Z,13.28
2019-05-22T02:06:25.133Z,12.93
2019-05-22T02:09:17.554Z,13.05
2019-05-22T02:11:49.662Z,13.03
2019-05-22T02:14:22.608Z,12.95
2019-05-22T02:16:57.187Z,13.30
2019-05-22T02:19:26.167Z,13.43
2019-05-22T02:21:56.574Z,14.53
2019-05-22T02:24:28.805Z,14.33
2019-05-22T02:26:59.472Z,14.75
2019-05-22T02:29:30.286Z,15.98
2019-05-22T02:32:03.270Z,15.45
2019-05-22T02:34:34.034Z,14.50
2019-05-22T02:37:05.403Z,15.13
2019-05-22T02:39:36.490Z,14.40
2019-05-22T02:42:13.314Z,15.25
2019-05-22T02:44:44.182Z,15.30
2019-05-22T02:47:20.125Z,16.32
2019-05-22T02:49:48.858Z,15.70
2019-05-22T02:52:20.848Z,15.58
2019-05-22T02:54:50.734Z,17.80
2019-05-22T02:57:20.804Z,17.92
2019-05-22T02:59:50.941Z,17.67
2019-05-22T03:02:23.563Z,19.77
2019-05-22T03:05:09.683Z,18.98
2019-05-22T03:07:42.172Z,19.73
2019-05-22T03:10:14.644Z,20.32
2019-05-22T03:12:46.126Z,21.45
2019-05-22T03:15:20.472Z,21.02
2019-05-22T03:17:55.549Z,21.50
2019-05-22T03:20:29.331Z,21.07
2019-05-22T03:23:18.659Z,22.50
2019-05-22T03:25:49.081Z,21.73
2019-05-22T03:28:19.783Z,22.60
2019-05-22T03:30:52.559Z,22.82
2019-05-22T03:33:23.413Z,22.87
2019-05-22T03:36:10.195Z,22.48
2019-05-22T03:38:43.164Z,22.70
2019-05-22T03:41:17.112Z,22.17
2019-05-22T03:43:48.868Z,22.73
2019-05-22T03:46:36.346Z,22.95
2019-05-22T03:49:27.496Z,24.35
2019-05-22T03:51:41.785Z,24.75
2019-05-22T03:54:13.134Z,24.80
2019-05-22T03:56:44.543Z,25.80
2019-05-22T03:59:15.623Z,26.02
2019-05-22T04:01:47.341Z,24.75
2019-05-22T04:04:34.361Z,26.25
2019-05-22T04:07:07.240Z,23.52
2019-05-22T04:09:40.154Z,22.90
2019-05-22T04:12:12.367Z,24.37
2019-05-22T04:14:43.867Z,23.87
2019-05-22T04:17:15.438Z,24.35
2019-05-22T04:19:50.308Z,22.10
2019-05-22T04:22:19.367Z,21.82
2019-05-22T04:24:50.492Z,22.70
2019-05-22T04:27:21.972Z,22.87
2019-05-22T04:29:54.970Z,22.58
2019-05-22T04:32:29.052Z,22.87
2019-05-22T04:34:59.326Z,23.00
2019-05-22T04:37:31.317Z,22.75
2019-05-22T04:40:21.287Z,22.00
2019-05-22T04:42:52.765Z,23.00
2019-05-22T04:45:23.831Z,22.52
2019-05-22T04:48:04.215Z,22.75
2019-05-22T04:50:35.595Z,23.47
2019-05-22T04:53:06.225Z,22.67
2019-05-22T04:55:37.338Z,24.12
2019-05-22T04:58:09.355Z,23.38
2019-05-22T05:00:40.324Z,23.07
2019-05-22T05:03:12.193Z,24.60
2019-05-22T05:05:45.234Z,25.90
2019-05-22T05:08:16.336Z,23.18
2019-05-22T05:10:52.410Z,25.08
2019-05-22T05:13:23.437Z,23.25
2019-05-22T05:15:54.024Z,23.87
2019-05-22T05:18:25.160Z,21.60
2019-05-22T05:20:56.025Z,22.62
2019-05-22T05:23:27.263Z,24.12
2019-05-22T05:25:57.638Z,22.85
2019-05-22T05:28:29.052Z,23.22
2019-05-22T05:30:59.751Z,23.77
2019-05-22T05:33:31.325Z,24.30
2019-05-22T05:36:02.244Z,24.05
2019-05-22T05:38:39.864Z,24.27
2019-05-22T05:41:11.782Z,25.00
2019-05-22T05:43:42.849Z,24.32
2019-05-22T05:46:14.784Z,24.12
2019-05-22T05:48:45.891Z,23.45
2019-05-22T05:51:22.970Z,23.20
2019-05-22T05:54:07.395Z,23.45
2019-05-22T05:56:39.977Z,23.67
2019-05-22T05:59:13.016Z,22.98
2019-05-22T06:01:48.898Z,22.98
2019-05-22T06:04:34.068Z,22.98
2019-05-22T06:07:02.490Z,22.98
2019-05-22T06:09:36.595Z,20.40
2019-05-22T06:12:08.781Z,19.87
2019-05-22T06:14:41.867Z,20.62
2019-05-22T06:17:45.623Z,19.42
2019-05-22T06:20:20.180Z,18.55
2019-05-22T06:23:30.549Z,18.95
2019-05-22T06:26:02.589Z,17.65
2019-05-22T06:28:39.267Z,18.10
2019-05-22T06:31:17.262Z,18.73
2019-05-22T06:33:48.785Z,18.87
2019-05-22T06:36:22.078Z,18.15
2019-05-22T06:39:01.193Z,19.67
2019-05-22T06:41:33.639Z,18.42
2019-05-22T06:44:34.401Z,17.40
2019-05-22T06:47:06.741Z,20.23
2019-05-22T06:49:40.697Z,21.30
2019-05-22T06:52:13.041Z,21.97
2019-05-22T06:54:44.300Z,21.70
2019-05-22T06:57:16.579Z,21.60
2019-05-22T07:00:10.702Z,20.97
2019-05-22T07:02:23.740Z,20.97
2019-05-22T07:04:54.957Z,22.48
2019-05-22T07:07:26.938Z,18.10
2019-05-22T07:09:58.235Z,18.48
2019-05-22T07:12:29.677Z,18.50
2019-05-22T07:15:11.443Z,17.65
2019-05-22T07:17:42.317Z,18.60
2019-05-22T07:20:17.268Z,21.42
2019-05-22T07:22:48.170Z,22.58
2019-05-22T07:25:20.644Z,22.13
2019-05-22T07:27:51.757Z,22.45
2019-05-22T07:30:24.043Z,22.93
2019-05-22T07:32:54.970Z,22.82
2019-05-22T07:35:44.147Z,23.15
2019-05-22T07:38:00.302Z,22.45
2019-05-22T07:40:31.617Z,22.62
2019-05-22T07:43:02.213Z,23.98
2019-05-22T07:45:34.693Z,23.65
2019-05-22T07:48:07.552Z,22.67
2019-05-22T07:50:40.059Z,21.35
2019-05-22T07:53:11.440Z,22.50
2019-05-22T07:55:42.128Z,22.45
2019-05-22T07:58:18.763Z,21.52
2019-05-22T08:00:56.129Z,21.85
2019-05-22T08:03:27.653Z,20.77
2019-05-22T08:06:00.431Z,20.35
2019-05-22T08:08:33.849Z,19.45
2019-05-22T08:11:05.842Z,18.77
2019-05-22T08:13:38.395Z,18.32
2019-05-22T08:16:11.598Z,18.27
2019-05-22T08:18:43.340Z,18.25
2019-05-22T08:21:14.190Z,18.17
2019-05-22T08:23:45.927Z,16.82
2019-05-22T08:26:17.053Z,16.45
2019-05-22T08:28:48.314Z,18.40
2019-05-22T08:31:22.180Z,16.97
2019-05-22T08:33:53.081Z,15.57
2019-05-22T08:36:23.645Z,16.42
2019-05-22T08:38:54.385Z,17.00
2019-05-22T08:41:29.479Z,16.30
2019-05-22T08:44:15.966Z,17.98
2019-05-22T08:46:37.934Z,16.10
2019-05-22T08:49:09.018Z,15.32
2019-05-22T08:51:42.717Z,14.35
2019-05-22T08:54:15.765Z,13.13
2019-05-22T08:56:51.301Z,12.95
2019-05-22T08:59:23.010Z,10.68
2019-05-22T09:01:55.124Z,11.03
2019-05-22T09:04:27.094Z,11.20
2019-05-22T09:06:57.732Z,11.18
2019-05-22T09:09:28.490Z,11.33
2019-05-22T09:11:59.220Z,11.12
2019-05-22T09:14:29.850Z,11.35
2019-05-22T09:17:00.558Z,10.70
2019-05-22T09:19:31.848Z,10.60
2019-05-22T09:22:05.513Z,11.73
2019-05-22T09:24:37.111Z,11.68
2019-05-22T09:27:09.368Z,11.43
2019-05-22T09:29:39.979Z,13.25
2019-05-22T09:32:10.741Z,11.30
2019-05-22T09:34:41.461Z,12.40
2019-05-22T09:37:12.099Z,11.78
2019-05-22T09:39:42.816Z,11.73
2019-05-22T09:42:17.066Z,13.22
2019-05-22T09:44:48.949Z,11.70
2019-05-22T09:47:23.983Z,13.35
2019-05-22T09:49:54.725Z,12.90
2019-05-22T09:52:26.541Z,12.93
2019-05-22T09:54:58.584Z,12.80
2019-05-22T09:57:29.291Z,11.78
2019-05-22T10:00:02.555Z,11.83
2019-05-22T10:02:34.032Z,12.65
2019-05-22T10:05:06.903Z,12.15
2019-05-22T10:07:57.130Z,12.05
2019-05-22T10:10:13.339Z,12.45
2019-05-22T10:12:45.636Z,11.18
2019-05-22T10:15:16.369Z,11.50
2019-05-22T10:17:51.392Z,10.55
2019-05-22T10:20:24.097Z,9.40
2019-05-22T10:22:54.650Z,8.48
2019-05-22T10:25:25.032Z,5.90
2019-05-22T10:27:59.247Z,5.45
2019-05-22T10:30:28.850Z,4.95
2019-05-22T10:32:59.253Z,5.15
2019-05-22T10:35:30.462Z,4.92
2019-05-22T10:38:01.749Z,4.65
2019-05-22T10:40:35.264Z,9.15
2019-05-22T10:43:06.160Z,4.47
2019-05-22T10:45:37.611Z,13.38
2019-05-22T10:48:10.622Z,13.30
2019-05-22T10:50:42.125Z,4.17
2019-05-22T10:53:30.330Z,5.97
2019-05-22T10:55:46.637Z,7.50
2019-05-22T10:58:17.365Z,4.20
2019-05-22T11:00:48.788Z,3.60
2019-05-22T11:03:20.680Z,3.30
2019-05-22T11:06:05.631Z,3.45
2019-05-22T11:08:23.695Z,3.60
2019-05-22T11:10:55.923Z,3.22
2019-05-22T11:13:26.584Z,3.12
2019-05-22T11:15:59.048Z,3.47
2019-05-22T11:18:29.552Z,3.30
2019-05-22T11:21:00.403Z,3.10
2019-05-22T11:23:31.153Z,3.17
2019-05-22T11:26:01.908Z,3.02
2019-05-22T11:28:35.981Z,3.42
2019-05-22T11:33:36.779Z,3.22
2019-05-22T11:36:08.336Z,3.52
2019-05-22T11:38:39.004Z,2.85
2019-05-22T11:41:12.103Z,2.75
2019-05-22T11:43:43.063Z,3.12
2019-05-22T11:46:14.053Z,3.15
2019-05-22T11:48:44.392Z,3.33
2019-05-22T11:51:14.894Z,3.83
2019-05-22T11:53:45.510Z,3.92
2019-05-22T11:56:16.191Z,4.22
2019-05-22T11:58:46.962Z,3.20
2019-05-22T12:01:18.305Z,4.10
2019-05-22T12:03:50.005Z,6.25
2019-05-22T12:06:21.100Z,4.08
2019-05-22T12:08:52.110Z,4.53
2019-05-22T12:11:22.860Z,5.33
2019-05-22T12:13:54.651Z,4.37
2019-05-22T12:16:25.137Z,4.28
2019-05-22T12:18:58.716Z,3.98
2019-05-22T12:21:28.127Z,3.92
2019-05-22T12:23:58.757Z,3.15
2019-05-22T12:26:30.573Z,2.85
2019-05-22T12:29:01.404Z,3.70
2019-05-22T12:31:32.246Z,3.33
2019-05-22T12:34:03.313Z,3.50
2019-05-22T12:36:34.501Z,3.40
2019-05-22T12:39:08.464Z,2.90
2019-05-22T12:41:40.210Z,3.15
2019-05-22T12:44:11.518Z,3.25
2019-05-22T12:46:42.554Z,4.30
2019-05-22T12:49:14.396Z,3.25
2019-05-22T12:51:46.557Z,3.52
2019-05-22T12:54:17.899Z,4.33
2019-05-22T12:56:49.347Z,3.80
2019-05-22T12:59:20.534Z,3.85
2019-05-22T13:01:53.269Z,2.60
2019-05-22T13:04:24.837Z,2.87
2019-05-22T13:06:55.488Z,2.70
2019-05-22T13:09:26.508Z,2.90
2019-05-22T13:11:57.505Z,3.50
2019-05-22T13:14:28.386Z,3.20
2019-05-22T13:17:01.480Z,3.27
2019-05-22T13:19:34.278Z,3.52
2019-05-22T13:22:08.822Z,3.40
2019-05-22T13:24:39.723Z,3.20
2019-05-22T13:27:12.171Z,2.37
2019-05-22T13:29:43.399Z,2.70
2019-05-22T13:32:17.846Z,2.67
2019-05-22T13:34:48.713Z,2.08
2019-05-22T13:37:19.582Z,2.10
2019-05-22T13:39:51.733Z,2.02
2019-05-22T13:42:23.016Z,2.20
2019-05-22T13:44:54.400Z,2.60
2019-05-22T13:47:25.210Z,2.67
2019-05-22T13:49:55.648Z,3.15
2019-05-22T13:52:26.133Z,2.92
2019-05-22T13:54:57.907Z,2.90
2019-05-22T13:57:29.378Z,2.62
2019-05-22T14:00:00.045Z,2.83
2019-05-22T14:02:30.847Z,2.47
2019-05-22T14:05:02.613Z,2.52
2019-05-22T14:07:33.241Z,2.70
2019-05-22T14:10:08.852Z,2.50
2019-05-22T14:12:39.777Z,2.58
2019-05-22T14:15:11.441Z,2.50
2019-05-22T14:17:42.262Z,2.20
2019-05-22T14:20:14.297Z,2.10
2019-05-22T14:22:44.769Z,1.92
2019-05-22T14:25:16.098Z,2.02
2019-05-22T14:27:46.956Z,2.20
2019-05-22T14:30:19.393Z,2.80
2019-05-22T14:32:50.228Z,2.70
2019-05-22T14:35:24.263Z,2.85
2019-05-22T14:40:27.137Z,2.47
2019-05-22T14:42:58.505Z,2.90
2019-05-22T14:45:29.630Z,2.80
2019-05-22T14:48:00.983Z,2.62
2019-05-22T14:50:34.339Z,2.80
2019-05-22T14:53:05.330Z,3.02
2019-05-22T14:55:37.854Z,2.30
2019-05-22T14:58:09.727Z,2.65
2019-05-22T15:00:40.650Z,2.60
2019-05-22T15:03:12.322Z,2.37
2019-05-22T15:05:43.130Z,2.55
2019-05-22T15:08:13.905Z,2.83
2019-05-22T15:10:45.221Z,2.50
2019-05-22T15:13:16.537Z,2.70
2019-05-22T15:15:48.995Z,2.58
2019-05-22T15:18:19.654Z,2.55
2019-05-22T15:20:57.734Z,2.40
2019-05-22T15:23:28.966Z,2.75
2019-05-22T15:26:01.690Z,2.30
2019-05-22T15:28:32.532Z,2.60
2019-05-22T15:31:04.575Z,2.30
2019-05-22T15:33:37.357Z,2.40
2019-05-22T15:36:10.587Z,2.60
2019-05-22T15:38:44.282Z,2.70
2019-05-22T15:41:15.792Z,2.72
2019-05-22T15:43:52.509Z,2.45
2019-05-22T15:46:22.680Z,2.60
2019-05-22T15:48:54.486Z,2.65
2019-05-22T15:51:29.446Z,2.45
2019-05-22T15:54:02.826Z,2.50
2019-05-22T15:56:36.648Z,3.13
2019-05-22T15:59:09.411Z,2.98
2019-05-22T16:01:40.224Z,3.00
2019-05-22T16:04:13.317Z,2.80
2019-05-22T16:06:43.916Z,2.95
2019-05-22T16:09:16.646Z,2.50
2019-05-22T16:11:51.333Z,2.87
2019-05-22T16:14:22.414Z,2.95
2019-05-22T16:16:54.504Z,2.90
2019-05-22T16:19:27.986Z,2.98
2019-05-22T16:22:01.656Z,3.30
2019-05-22T16:24:32.286Z,3.33
2019-05-22T16:27:04.556Z,3.05
2019-05-22T16:29:40.604Z,2.83
2019-05-22T16:32:12.508Z,2.70
2019-05-22T16:34:42.885Z,3.22
2019-05-22T16:37:14.642Z,2.87
2019-05-22T16:39:44.892Z,4.05
2019-05-22T16:42:17.020Z,3.52
2019-05-22T16:44:48.821Z,3.17
2019-05-22T16:47:22.066Z,2.80
2019-05-22T16:49:54.211Z,3.20
2019-05-22T16:52:27.484Z,2.77
2019-05-22T16:55:01.644Z,3.27
2019-05-22T16:57:33.962Z,3.58
2019-05-22T17:00:10.011Z,2.87
2019-05-22T17:02:42.880Z,2.95
2019-05-22T17:05:15.958Z,3.10
2019-05-22T17:07:47.121Z,3.10
2019-05-22T17:10:17.978Z,2.75
2019-05-22T17:12:49.310Z,2.85
2019-05-22T17:15:21.858Z,3.02
2019-05-22T17:17:53.418Z,3.00
2019-05-22T17:23:15.078Z,3.27
2019-05-22T17:25:46.472Z,3.25
2019-05-22T17:28:18.751Z,2.83
2019-05-22T17:30:50.506Z,2.90
2019-05-22T17:33:21.985Z,3.50
2019-05-22T17:35:56.127Z,3.58
2019-05-22T17:38:30.953Z,2.85
2019-05-22T17:41:03.728Z,3.20
2019-05-22T17:43:37.326Z,3.37
2019-05-22T17:46:08.239Z,2.12
2019-05-22T17:48:40.014Z,2.77
2019-05-22T17:51:10.941Z,3.00
2019-05-22T17:53:41.087Z,3.10
2019-05-22T17:56:11.676Z,3.17
2019-05-22T17:58:42.454Z,3.47
2019-05-22T18:01:14.034Z,2.72
2019-05-22T18:03:44.801Z,5.78
2019-05-22T18:06:15.547Z,3.95
2019-05-22T18:08:46.090Z,3.72
2019-05-22T18:11:18.366Z,2.98
2019-05-22T18:14:04.378Z,3.77
2019-05-22T18:16:35.634Z,3.35
2019-05-22T18:19:09.079Z,3.45
2019-05-22T18:21:40.318Z,3.00
2019-05-22T18:24:10.692Z,3.15
2019-05-22T18:26:40.788Z,3.10
2019-05-22T18:29:11.075Z,3.10
2019-05-22T18:31:41.700Z,3.10
2019-05-22T18:34:12.070Z,3.80
2019-05-22T18:36:42.450Z,3.10
2019-05-22T18:39:14.300Z,3.90
2019-05-22T18:41:44.513Z,3.05
2019-05-22T18:44:14.856Z,3.70
2019-05-22T18:46:47.279Z,3.50
2019-05-22T18:49:18.866Z,3.08
2019-05-22T18:51:49.850Z,3.33
2019-05-22T18:54:21.786Z,3.30
2019-05-22T18:56:52.067Z,3.45
2019-05-22T18:59:22.477Z,3.00
2019-05-22T19:01:53.261Z,3.83
2019-05-22T19:04:24.975Z,3.80
2019-05-22T19:06:56.148Z,3.40
2019-05-22T19:09:27.029Z,3.20
2019-05-22T19:11:59.206Z,3.80
2019-05-22T19:14:29.934Z,3.85
2019-05-22T19:17:01.123Z,3.92
2019-05-22T19:19:31.533Z,3.70
2019-05-22T19:22:01.916Z,4.08
2019-05-22T19:24:32.379Z,4.12
2019-05-22T19:27:02.465Z,4.45
2019-05-22T19:29:32.942Z,4.53
2019-05-22T19:32:03.097Z,4.55
2019-05-22T19:34:34.705Z,4.87
2019-05-22T19:37:05.098Z,5.60
2019-05-22T19:39:36.121Z,5.90
2019-05-22T19:42:08.063Z,6.22
2019-05-22T19:44:38.027Z,7.40
2019-05-22T19:47:09.167Z,7.30
2019-05-22T19:49:39.203Z,7.70
2019-05-22T19:52:10.766Z,8.45
2019-05-22T19:54:41.598Z,7.67
2019-05-22T19:57:12.529Z,11.35
2019-05-22T19:59:43.172Z,13.15
2019-05-22T20:02:12.934Z,11.90
2019-05-22T20:04:43.110Z,12.03
2019-05-22T20:07:14.314Z,11.15
2019-05-22T20:09:44.325Z,11.80
2019-05-22T20:12:14.839Z,10.10
2019-05-22T20:14:44.666Z,10.05
2019-05-22T20:17:14.575Z,9.75
2019-05-22T20:19:44.566Z,10.00
2019-05-22T20:22:16.240Z,9.48
2019-05-22T20:24:47.618Z,8.80
2019-05-22T20:27:17.477Z,9.10
2019-05-22T20:29:47.456Z,9.73
2019-05-22T20:32:17.191Z,8.75
2019-05-22T20:34:47.662Z,8.75
2019-05-22T20:37:18.298Z,7.62
2019-05-22T20:39:50.009Z,6.87
2019-05-22T20:42:22.111Z,7.40
2019-05-22T20:44:52.603Z,6.37
2019-05-22T20:47:27.066Z,7.20
2019-05-22T20:49:57.538Z,6.62
2019-05-22T20:52:30.269Z,7.00
2019-05-22T20:55:00.650Z,6.95
2019-05-22T20:57:32.646Z,6.03
2019-05-22T21:00:03.384Z,5.92
2019-05-22T21:02:34.446Z,5.65
2019-05-22T21:05:06.893Z,5.80
2019-05-22T21:07:40.991Z,5.45
2019-05-22T21:10:11.600Z,5.62
2019-05-22T21:12:43.441Z,6.08
2019-05-22T21:15:14.263Z,5.95
2019-05-22T21:17:47.180Z,5.53
2019-05-22T21:20:18.688Z,5.30
2019-05-22T21:22:50.285Z,5.03
2019-05-22T21:25:20.066Z,5.15
2019-05-22T21:27:51.651Z,5.78
2019-05-22T21:30:23.330Z,5.78
2019-05-22T21:32:55.165Z,5.03
2019-05-22T21:35:25.154Z,5.22
2019-05-22T21:37:55.795Z,5.10
2019-05-22T21:40:26.558Z,4.80
2019-05-22T21:42:56.566Z,5.40
2019-05-22T21:45:26.846Z,4.90
2019-05-22T21:47:56.692Z,4.87
2019-05-22T21:50:27.182Z,5.00
2019-05-22T21:52:57.223Z,5.15
2019-05-22T21:55:27.775Z,4.80
2019-05-22T21:57:58.149Z,5.10
2019-05-22T22:00:40.690Z,4.90
2019-05-22T22:03:13.729Z,4.45
2019-05-22T22:05:44.848Z,4.95
2019-05-22T22:08:14.610Z,4.60
2019-05-22T22:10:44.884Z,4.37
2019-05-22T22:13:15.503Z,4.92
2019-05-22T22:15:45.549Z,4.95
2019-05-22T22:18:15.581Z,4.45
2019-05-22T22:20:45.902Z,4.95
2019-05-22T22:23:17.885Z,4.83
2019-05-22T22:25:48.688Z,5.00
2019-05-22T22:28:53.359Z,5.03
2019-05-22T22:31:24.919Z,5.15
2019-05-22T22:34:02.412Z,4.83
2019-05-22T22:36:32.631Z,5.40
2019-05-22T22:39:03.201Z,5.08
2019-05-22T22:41:33.210Z,4.85
2019-05-22T22:44:05.554Z,4.70
2019-05-22T22:46:40.164Z,4.97
2019-05-22T22:49:15.383Z,5.22
2019-05-22T22:51:46.971Z,5.70
2019-05-22T22:54:16.929Z,5.55
2019-05-22T22:56:47.563Z,5.70
2019-05-22T22:59:17.573Z,5.97
2019-05-22T23:01:52.278Z,5.75
2019-05-22T23:04:27.095Z,5.53
2019-05-22T23:09:29.660Z,5.62
2019-05-22T23:12:00.770Z,6.17
2019-05-22T23:14:31.201Z,5.70
2019-05-22T23:17:00.945Z,6.00
2019-05-22T23:19:32.519Z,5.17
2019-05-22T23:22:01.579Z,5.70
2019-05-22T23:24:32.942Z,5.70
2019-05-22T23:27:02.690Z,6.22
2019-05-22T23:29:32.928Z,6.40
2019-05-22T23:32:04.098Z,6.15
2019-05-22T23:34:34.378Z,5.70
2019-05-22T23:37:05.969Z,5.90
2019-05-22T23:39:36.497Z,5.80
2019-05-22T23:42:12.484Z,5.70
2019-05-22T23:44:42.821Z,5.85
2019-05-22T23:47:13.096Z,6.17
2019-05-22T23:49:43.965Z,6.70
2019-05-22T23:52:15.363Z,6.92
2019-05-22T23:54:45.999Z,6.53
2019-05-22T23:57:16.884Z,6.53
2019-05-22T23:59:49.667Z,6.40
